Observation data for Haskell on 06/21/2019      Previous  Date  Next       Current Mesonet Observations  Soil Data  Daily Summary Page  Observations in Plain Language
KHA1 210500Z 17011G17KT 31/21 A2972 RMK A01 T03060212  RH  061%=      5-min Rain = 0
KHA1 210505Z 17010G18KT 31/21 A2972 RMK A01 T03050212  RH  061%=      5-min Rain = 0
KHA1 210510Z 17011KT 30/21 A2972 RMK A01 T03040211  RH  061%=      5-min Rain = 0
KHA1 210515Z 17009G14KT 30/21 A2972 RMK A01 T03030212  RH  062%=      5-min Rain = 0
KHA1 210520Z 17010G15KT 30/21 A2972 RMK A01 T03020212  RH  062%=      5-min Rain = 0
KHA1 210525Z 17009KT 30/21 A2972 RMK A01 T03010212  RH  063%=      5-min Rain = 0
KHA1 210530Z 17009G15KT 30/21 A2972 RMK A01 T03000212  RH  063%=      5-min Rain = 0
KHA1 210535Z 17008KT 30/21 A2972 RMK A01 T02990212  RH  063%=      5-min Rain = 0
KHA1 210540Z 17009KT 30/21 A2972 RMK A01 T02980213  RH  064%=      5-min Rain = 0
KHA1 210545Z 18009KT 30/21 A2972 RMK A01 T02970213  RH  064%=      5-min Rain = 0
KHA1 210550Z 18009KT 30/21 A2972 RMK A01 T02950213  RH  065%=      5-min Rain = 0
KHA1 210555Z 18009KT 30/21 A2972 RMK A01 T02960212  RH  065%=      5-min Rain = 0
KHA1 210600Z 18008KT 29/21 A2972 RMK A01 T02940212  RH  065%=      5-min Rain = 0
KHA1 210605Z 19008KT 29/21 A2973 RMK A01 T02930212  RH  066%=      5-min Rain = 0
KHA1 210610Z 18009KT 29/21 A2973 RMK A01 T02920211  RH  066%=      5-min Rain = 0
KHA1 210615Z 18009KT 29/21 A2972 RMK A01 T02920210  RH  065%=      5-min Rain = 0
KHA1 210620Z 18010G15KT 29/21 A2972 RMK A01 T02930210  RH  065%=      5-min Rain = 0
KHA1 210625Z 18011G16KT 29/21 A2972 RMK A01 T02930209  RH  064%=      5-min Rain = 0
KHA1 210630Z 18011G17KT 29/21 A2972 RMK A01 T02940209  RH  064%=      5-min Rain = 0
KHA1 210635Z 18012G17KT 29/21 A2972 RMK A01 T02940209  RH  064%=      5-min Rain = 0
KHA1 210640Z 18012G20KT 29/21 A2972 RMK A01 T02940210  RH  064%=      5-min Rain = 0
KHA1 210645Z 18012KT 29/21 A2972 RMK A01 T02940211  RH  065%=      5-min Rain = 0
KHA1 210650Z 18012G17KT 29/21 A2972 RMK A01 T02930212  RH  066%=      5-min Rain = 0
KHA1 210655Z 18012KT 29/21 A2972 RMK A01 T02920213  RH  066%=      5-min Rain = 0
KHA1 210700Z 19013G18KT 29/21 A2972 RMK A01 T02910214  RH  067%=      5-min Rain = 0
KHA1 210705Z 18013G20KT 29/21 A2971 RMK A01 T02930214  RH  067%=      5-min Rain = 0
KHA1 210710Z 18013G19KT 29/22 A2971 RMK A01 T02920215  RH  067%=      5-min Rain = 0
KHA1 210715Z 18012G20KT 29/22 A2971 RMK A01 T02910215  RH  068%=      5-min Rain = 0
KHA1 210720Z 18012G18KT 29/22 A2971 RMK A01 T02900216  RH  068%=      5-min Rain = 0
KHA1 210725Z 18011G16KT 29/22 A2971 RMK A01 T02880216  RH  070%=      5-min Rain = 0
KHA1 210730Z 18010G15KT 29/22 A2971 RMK A01 T02860216  RH  070%=      5-min Rain = 0
KHA1 210735Z 18010G16KT 29/22 A2971 RMK A01 T02850217  RH  071%=      5-min Rain = 0
KHA1 210740Z 18012KT 28/22 A2971 RMK A01 T02840217  RH  071%=      5-min Rain = 0
KHA1 210745Z 19013KT 29/22 A2971 RMK A01 T02850217  RH  071%=      5-min Rain = 0
KHA1 210750Z 19012KT 28/22 A2971 RMK A01 T02840217  RH  071%=      5-min Rain = 0
KHA1 210755Z 19012KT 28/22 A2971 RMK A01 T02830217  RH  072%=      5-min Rain = 0
KHA1 210800Z 19011G16KT 28/22 A2971 RMK A01 T02800217  RH  073%=      5-min Rain = 0
KHA1 210805Z 19011KT 28/22 A2971 RMK A01 T02790217  RH  073%=      5-min Rain = 0
KHA1 210810Z 19011G16KT 28/22 A2971 RMK A01 T02780217  RH  074%=      5-min Rain = 0
KHA1 210815Z 19011KT 28/22 A2972 RMK A01 T02770217  RH  074%=      5-min Rain = 0
KHA1 210820Z 20011KT 28/22 A2972 RMK A01 T02760217  RH  075%=      5-min Rain = 0
KHA1 210825Z 20013KT 28/22 A2971 RMK A01 T02760217  RH  075%=      5-min Rain = 0
KHA1 210830Z 20012KT 28/22 A2971 RMK A01 T02760217  RH  075%=      5-min Rain = 0
KHA1 210835Z 19012KT 28/22 A2971 RMK A01 T02760217  RH  075%=      5-min Rain = 0
KHA1 210840Z 19012KT 28/22 A2971 RMK A01 T02750217  RH  076%=      5-min Rain = 0
KHA1 210845Z 19011G16KT 27/22 A2971 RMK A01 T02740217  RH  076%=      5-min Rain = 0
KHA1 210850Z 19011KT 27/22 A2971 RMK A01 T02730218  RH  076%=      5-min Rain = 0
KHA1 210855Z 19012KT 27/22 A2971 RMK A01 T02720218  RH  077%=      5-min Rain = 0
KHA1 210900Z 19011G16KT 27/22 A2971 RMK A01 T02720218  RH  077%=      5-min Rain = 0
KHA1 210905Z 19012KT 27/22 A2971 RMK A01 T02720218  RH  077%=      5-min Rain = 0
KHA1 210910Z 19011G16KT 27/22 A2971 RMK A01 T02710218  RH  077%=      5-min Rain = 0
KHA1 210915Z 19011G16KT 27/22 A2971 RMK A01 T02700218  RH  078%=      5-min Rain = 0
KHA1 210920Z 19011KT 27/22 A2971 RMK A01 T02700219  RH  078%=      5-min Rain = 0
KHA1 210925Z 19011KT 27/22 A2971 RMK A01 T02690219  RH  079%=      5-min Rain = 0
KHA1 210930Z 19011KT 27/22 A2971 RMK A01 T02690219  RH  079%=      5-min Rain = 0
KHA1 210935Z 19012G17KT 27/22 A2972 RMK A01 T02690219  RH  079%=      5-min Rain = 0
KHA1 210940Z 19011G16KT 27/22 A2972 RMK A01 T02690219  RH  079%=      5-min Rain = 0
KHA1 210945Z 19011KT 27/22 A2972 RMK A01 T02680219  RH  079%=      5-min Rain = 0
KHA1 210950Z 19011KT 27/22 A2972 RMK A01 T02670219  RH  080%=      5-min Rain = 0
KHA1 210955Z 19012KT 27/22 A2972 RMK A01 T02680219  RH  080%=      5-min Rain = 0
KHA1 211000Z 19010G15KT 27/22 A2972 RMK A01 T02670219  RH  080%=      5-min Rain = 0
KHA1 211005Z 19010G15KT 27/22 A2972 RMK A01 T02670219  RH  080%=      5-min Rain = 0
KHA1 211010Z 19010KT 27/22 A2972 RMK A01 T02660219  RH  080%=      5-min Rain = 0
KHA1 211015Z 19011KT 27/22 A2972 RMK A01 T02660220  RH  081%=      5-min Rain = 0
KHA1 211020Z 19010KT 27/22 A2973 RMK A01 T02660220  RH  081%=      5-min Rain = 0
KHA1 211025Z 19011KT 27/22 A2973 RMK A01 T02650220  RH  081%=      5-min Rain = 0
KHA1 211030Z 19011KT 27/22 A2973 RMK A01 T02650220  RH  081%=      5-min Rain = 0
KHA1 211035Z 19010KT 27/22 A2973 RMK A01 T02650220  RH  081%=      5-min Rain = 0
KHA1 211040Z 19010KT 26/22 A2973 RMK A01 T02640220  RH  082%=      5-min Rain = 0
KHA1 211045Z 19010KT 26/22 A2973 RMK A01 T02630220  RH  082%=      5-min Rain = 0
KHA1 211050Z 19010KT 26/22 A2974 RMK A01 T02630220  RH  082%=      5-min Rain = 0
KHA1 211055Z 19010KT 26/22 A2974 RMK A01 T02630220  RH  082%=      5-min Rain = 0
KHA1 211100Z 19010KT 26/22 A2974 RMK A01 T02620220  RH  083%=      5-min Rain = 0
KHA1 211105Z 19010KT 26/22 A2974 RMK A01 T02630220  RH  082%=      5-min Rain = 0
KHA1 211110Z 19010KT 26/22 A2975 RMK A01 T02620220  RH  083%=      5-min Rain = 0
KHA1 211115Z 19011KT 26/22 A2975 RMK A01 T02620220  RH  083%=      5-min Rain = 0
KHA1 211120Z 19011KT 26/22 A2975 RMK A01 T02630221  RH  083%=      5-min Rain = 0
KHA1 211125Z 19010KT 26/22 A2975 RMK A01 T02620220  RH  083%=      5-min Rain = 0
KHA1 211130Z 19010KT 26/22 A2975 RMK A01 T02610220  RH  083%=      5-min Rain = 0
KHA1 211135Z 19010G15KT 26/22 A2975 RMK A01 T02610220  RH  083%=      5-min Rain = 0
KHA1 211140Z 19011KT 26/22 A2975 RMK A01 T02610221  RH  083%=      5-min Rain = 0
KHA1 211145Z 19011KT 26/22 A2975 RMK A01 T02610221  RH  083%=      5-min Rain = 0
KHA1 211155Z 19011KT 26/22 A2976 RMK A01 T02600221  RH  084%=      5-min Rain = 0
KHA1 211200Z 19010KT 26/22 A2976 RMK A01 T02610221  RH  084%=      5-min Rain = 0
KHA1 211205Z 19010G15KT 26/22 A2976 RMK A01 T02610221  RH  084%=      5-min Rain = 0
KHA1 211210Z 19010KT 26/22 A2976 RMK A01 T02610221  RH  084%=      5-min Rain = 0
KHA1 211215Z 19010KT 26/22 A2976 RMK A01 T02620221  RH  083%=      5-min Rain = 0
KHA1 211220Z 19011G16KT 26/22 A2976 RMK A01 T02630222  RH  083%=      5-min Rain = 0
KHA1 211225Z 19011KT 26/22 A2976 RMK A01 T02640222  RH  083%=      5-min Rain = 0
KHA1 211230Z 19011G16KT 27/22 A2976 RMK A01 T02650222  RH  082%=      5-min Rain = 0
KHA1 211235Z 19011G16KT 27/22 A2976 RMK A01 T02670222  RH  082%=      5-min Rain = 0
KHA1 211240Z 19010KT 27/22 A2976 RMK A01 T02680223  RH  081%=      5-min Rain = 0
KHA1 211245Z 19010G15KT 27/22 A2976 RMK A01 T02700223  RH  081%=      5-min Rain = 0
KHA1 211250Z 19010G16KT 27/22 A2976 RMK A01 T02710223  RH  080%=      5-min Rain = 0
KHA1 211255Z 19011G17KT 27/22 A2977 RMK A01 T02730223  RH  079%=      5-min Rain = 0
KHA1 211300Z 19011G16KT 28/22 A2977 RMK A01 T02750223  RH  078%=      5-min Rain = 0
KHA1 211305Z 19012G17KT 28/22 A2977 RMK A01 T02770224  RH  078%=      5-min Rain = 0
KHA1 211310Z 19013G18KT 28/22 A2977 RMK A01 T02790224  RH  077%=      5-min Rain = 0
KHA1 211315Z 19014G20KT 28/22 A2978 RMK A01 T02810223  RH  076%=      5-min Rain = 0
KHA1 211320Z 19013G19KT 28/22 A2978 RMK A01 T02840224  RH  075%=      5-min Rain = 0
KHA1 211325Z 19013G18KT 29/22 A2978 RMK A01 T02850224  RH  074%=      5-min Rain = 0
KHA1 211330Z 19014G19KT 29/22 A2978 RMK A01 T02870223  RH  073%=      5-min Rain = 0
KHA1 211335Z 20013G18KT 29/22 A2978 RMK A01 T02890224  RH  072%=      5-min Rain = 0
KHA1 211340Z 20017G22KT 29/22 A2978 RMK A01 T02900223  RH  072%=      5-min Rain = 0
KHA1 211345Z 20015G20KT 29/22 A2978 RMK A01 T02910223  RH  071%=      5-min Rain = 0
KHA1 211350Z 19015G21KT 29/22 A2978 RMK A01 T02910223  RH  071%=      5-min Rain = 0
KHA1 211355Z 19015G22KT 29/22 A2978 RMK A01 T02930223  RH  070%=      5-min Rain = 0
KHA1 211400Z 20016G23KT 30/22 A2978 RMK A01 T02950222  RH  069%=      5-min Rain = 0
KHA1 211405Z 19018G23KT 30/22 A2978 RMK A01 T02950221  RH  069%=      5-min Rain = 0
KHA1 211410Z 19019KT 30/22 A2978 RMK A01 T02950221  RH  068%=      5-min Rain = 0
KHA1 211415Z 19017G23KT 30/22 A2978 RMK A01 T02980222  RH  068%=      5-min Rain = 0
KHA1 211420Z 19016G22KT 30/22 A2978 RMK A01 T03010222  RH  067%=      5-min Rain = 0
KHA1 211425Z 19018G25KT 30/22 A2978 RMK A01 T03020220  RH  066%=      5-min Rain = 0
KHA1 211430Z 19019G24KT 30/22 A2978 RMK A01 T03030220  RH  065%=      5-min Rain = 0
KHA1 211435Z 20017G23KT 31/22 A2978 RMK A01 T03060220  RH  064%=      5-min Rain = 0
KHA1 211440Z 19020G26KT 31/22 A2978 RMK A01 T03060217  RH  063%=      5-min Rain = 0
KHA1 211445Z 20016G22KT 31/22 A2978 RMK A01 T03090219  RH  063%=      5-min Rain = 0
KHA1 211450Z 19018G24KT 31/22 A2978 RMK A01 T03100217  RH  061%=      5-min Rain = 0
KHA1 211455Z 20018G24KT 31/22 A2978 RMK A01 T03130217  RH  060%=      5-min Rain = 0
KHA1 211500Z 20018G24KT 31/22 A2978 RMK A01 T03130216  RH  060%=      5-min Rain = 0
KHA1 211505Z 20017G22KT 32/22 A2978 RMK A01 T03160216  RH  059%=      5-min Rain = 0
KHA1 211510Z 20018KT 32/22 A2978 RMK A01 T03180216  RH  058%=      5-min Rain = 0
KHA1 211515Z 20016G24KT 32/22 A2978 RMK A01 T03200216  RH  058%=      5-min Rain = 0
KHA1 211520Z 20014G20KT 32/22 A2978 RMK A01 T03240218  RH  057%=      5-min Rain = 0
KHA1 211525Z 20017KT 33/22 A2978 RMK A01 T03250215  RH  056%=      5-min Rain = 0
KHA1 211530Z 20018KT 33/21 A2978 RMK A01 T03250213  RH  055%=      5-min Rain = 0
KHA1 211535Z 19016G21KT 33/21 A2978 RMK A01 T03250214  RH  055%=      5-min Rain = 0
KHA1 211540Z 20015G20KT 33/22 A2978 RMK A01 T03280215  RH  055%=      5-min Rain = 0
KHA1 211545Z 19016G23KT 33/21 A2978 RMK A01 T03320214  RH  053%=      5-min Rain = 0
KHA1 211550Z 19016G21KT 33/21 A2978 RMK A01 T03290212  RH  053%=      5-min Rain = 0
KHA1 211555Z 20016G22KT 34/21 A2978 RMK A01 T03350213  RH  052%=      5-min Rain = 0
KHA1 211600Z 20015G20KT 33/21 A2978 RMK A01 T03330212  RH  052%=      5-min Rain = 0
KHA1 211605Z 19014G21KT 34/21 A2978 RMK A01 T03370213  RH  051%=      5-min Rain = 0
KHA1 211610Z 19016G21KT 33/21 A2978 RMK A01 T03330210  RH  051%=      5-min Rain = 0
KHA1 211615Z 20016G24KT 34/21 A2978 RMK A01 T03370209  RH  050%=      5-min Rain = 0
KHA1 211620Z 20015KT 34/21 A2978 RMK A01 T03400210  RH  050%=      5-min Rain = 0
KHA1 211625Z 20017G22KT 34/21 A2978 RMK A01 T03400206  RH  048%=      5-min Rain = 0
KHA1 211630Z 19014KT 34/21 A2978 RMK A01 T03390208  RH  050%=      5-min Rain = 0
KHA1 211635Z 17013KT 34/21 A2978 RMK A01 T03370209  RH  050%=      5-min Rain = 0
KHA1 211640Z 18014G19KT 34/21 A2978 RMK A01 T03350210  RH  051%=      5-min Rain = 0
KHA1 211645Z 18013G18KT 34/21 A2978 RMK A01 T03390211  RH  050%=      5-min Rain = 0
KHA1 211650Z 18012KT 34/21 A2978 RMK A01 T03400211  RH  050%=      5-min Rain = 0
KHA1 211655Z 19014G20KT 34/21 A2978 RMK A01 T03410210  RH  049%=      5-min Rain = 0
KHA1 211700Z 18013G18KT 34/21 A2978 RMK A01 T03440210  RH  049%=      5-min Rain = 0
KHA1 211705Z 19015G21KT 35/21 A2978 RMK A01 T03470208  RH  047%=      5-min Rain = 0
KHA1 211710Z 20015G20KT 35/21 A2978 RMK A01 T03470206  RH  047%=      5-min Rain = 0
KHA1 211715Z 19014G19KT 35/21 A2978 RMK A01 T03490208  RH  047%=      5-min Rain = 0
KHA1 211720Z 19016G23KT 35/21 A2978 RMK A01 T03490207  RH  046%=      5-min Rain = 0
KHA1 211725Z 19016G21KT 35/21 A2978 RMK A01 T03490207  RH  046%=      5-min Rain = 0
KHA1 211730Z 19016G22KT 35/21 A2978 RMK A01 T03500208  RH  046%=      5-min Rain = 0
KHA1 211735Z 19016G22KT 35/21 A2978 RMK A01 T03480207  RH  046%=      5-min Rain = 0
KHA1 211740Z 19015G23KT 35/21 A2978 RMK A01 T03500206  RH  046%=      5-min Rain = 0
KHA1 211745Z 19015G20KT 36/21 A2978 RMK A01 T03560208  RH  045%=      5-min Rain = 0
KHA1 211750Z 18013G19KT 35/21 A2978 RMK A01 T03530207  RH  045%=      5-min Rain = 0
KHA1 211755Z 19013G19KT 36/21 A2977 RMK A01 T03580207  RH  044%=      5-min Rain = 0
KHA1 211800Z 19014G19KT 36/21 A2977 RMK A01 T03550205  RH  044%=      5-min Rain = 0
KHA1 211805Z 20015G20KT 36/20 A2977 RMK A01 T03570204  RH  043%=      5-min Rain = 0
KHA1 211810Z 19014G22KT 36/21 A2977 RMK A01 T03600205  RH  043%=      5-min Rain = 0
KHA1 211815Z 18014G21KT 36/21 A2977 RMK A01 T03580206  RH  044%=      5-min Rain = 0
KHA1 211820Z 19015G21KT 36/20 A2977 RMK A01 T03610202  RH  042%=      5-min Rain = 0
KHA1 211825Z 20012G17KT 36/20 A2977 RMK A01 T03630203  RH  042%=      5-min Rain = 0
KHA1 211830Z 19015G20KT 37/20 A2977 RMK A01 T03660202  RH  041%=      5-min Rain = 0
KHA1 211835Z 18014G20KT 36/20 A2977 RMK A01 T03600201  RH  042%=      5-min Rain = 0
KHA1 211840Z 18014G20KT 36/20 A2976 RMK A01 T03580203  RH  043%=      5-min Rain = 0
KHA1 211845Z 18013G18KT 36/21 A2976 RMK A01 T03620205  RH  043%=      5-min Rain = 0
KHA1 211850Z 18012G17KT 36/20 A2976 RMK A01 T03620204  RH  042%=      5-min Rain = 0
KHA1 211855Z 18014G20KT 36/20 A2976 RMK A01 T03630201  RH  041%=      5-min Rain = 0
KHA1 211900Z 18013G18KT 36/20 A2976 RMK A01 T03590203  RH  043%=      5-min Rain = 0
KHA1 211905Z 18013G21KT 36/20 A2976 RMK A01 T03630203  RH  042%=      5-min Rain = 0
KHA1 211910Z 18015G22KT 36/20 A2976 RMK A01 T03620202  RH  042%=      5-min Rain = 0
KHA1 211915Z 19014KT 37/20 A2976 RMK A01 T03660201  RH  041%=      5-min Rain = 0
KHA1 211920Z 19014KT 37/20 A2975 RMK A01 T03690200  RH  040%=      5-min Rain = 0
KHA1 211925Z 19015KT 37/20 A2975 RMK A01 T03680198  RH  039%=      5-min Rain = 0
KHA1 211930Z 18011G17KT 37/20 A2975 RMK A01 T03670201  RH  040%=      5-min Rain = 0
KHA1 211935Z 19013G20KT 37/20 A2975 RMK A01 T03710200  RH  039%=      5-min Rain = 0
KHA1 211940Z 18013G21KT 37/20 A2975 RMK A01 T03740201  RH  039%=      5-min Rain = 0
KHA1 211945Z 19015G23KT 37/20 A2975 RMK A01 T03700200  RH  039%=      5-min Rain = 0
KHA1 211950Z 18012G19KT 37/20 A2975 RMK A01 T03710197  RH  038%=      5-min Rain = 0
KHA1 211955Z 19016G22KT 37/20 A2974 RMK A01 T03720195  RH  038%=      5-min Rain = 0
KHA1 212000Z 19016G22KT 38/20 A2974 RMK A01 T03760195  RH  037%=      5-min Rain = 0
KHA1 212005Z 19015G23KT 38/19 A2974 RMK A01 T03760193  RH  037%=      5-min Rain = 0
KHA1 212010Z 19015G22KT 38/19 A2974 RMK A01 T03760192  RH  036%=      5-min Rain = 0
KHA1 212015Z 19014G19KT 38/19 A2974 RMK A01 T03750194  RH  037%=      5-min Rain = 0
KHA1 212020Z 19015G20KT 38/19 A2974 RMK A01 T03800193  RH  036%=      5-min Rain = 0
KHA1 212025Z 18014G20KT 38/19 A2974 RMK A01 T03750192  RH  037%=      5-min Rain = 0
KHA1 212030Z 18013G18KT 38/20 A2974 RMK A01 T03770197  RH  037%=      5-min Rain = 0
KHA1 212035Z 18013G20KT 38/21 A2974 RMK A01 T03750207  RH  040%=      5-min Rain = 0
KHA1 212040Z 16009KT 37/21 A2974 RMK A01 T03740213  RH  042%=      5-min Rain = 0
KHA1 212045Z 17013G18KT 37/21 A2974 RMK A01 T03710212  RH  042%=      5-min Rain = 0
KHA1 212050Z 17012G19KT 37/21 A2974 RMK A01 T03730213  RH  042%=      5-min Rain = 0
KHA1 212055Z 16014G19KT 37/21 A2974 RMK A01 T03680214  RH  044%=      5-min Rain = 0
KHA1 212100Z 17014G20KT 37/21 A2974 RMK A01 T03660214  RH  044%=      5-min Rain = 0
KHA1 212105Z 18014G20KT 37/22 A2974 RMK A01 T03690216  RH  044%=      5-min Rain = 0
KHA1 212110Z 17013G18KT 37/22 A2974 RMK A01 T03680215  RH  044%=      5-min Rain = 0
KHA1 212115Z 16013G20KT 37/22 A2973 RMK A01 T03670221  RH  046%=      5-min Rain = 0
KHA1 212120Z 16015G22KT 36/22 A2973 RMK A01 T03620219  RH  047%=      5-min Rain = 0
KHA1 212125Z 17013G19KT 36/22 A2973 RMK A01 T03630217  RH  046%=      5-min Rain = 0
KHA1 212130Z 17013G20KT 36/22 A2973 RMK A01 T03640218  RH  046%=      5-min Rain = 0
KHA1 212135Z 16015G22KT 36/22 A2973 RMK A01 T03610218  RH  047%=      5-min Rain = 0
KHA1 212140Z 16013G21KT 36/22 A2973 RMK A01 T03610220  RH  047%=      5-min Rain = 0
KHA1 212145Z 16014G19KT 36/22 A2973 RMK A01 T03600220  RH  047%=      5-min Rain = 0
KHA1 212150Z 17015G27KT 36/22 A2973 RMK A01 T03600218  RH  047%=      5-min Rain = 0
KHA1 212155Z 17015KT 36/22 A2973 RMK A01 T03610218  RH  046%=      5-min Rain = 0
KHA1 212200Z 18015G23KT 36/22 A2973 RMK A01 T03610217  RH  046%=      5-min Rain = 0
KHA1 212205Z 17013G18KT 36/22 A2973 RMK A01 T03630217  RH  046%=      5-min Rain = 0
KHA1 212210Z 17015G22KT 36/22 A2973 RMK A01 T03600216  RH  046%=      5-min Rain = 0
KHA1 212215Z 16015KT 36/22 A2973 RMK A01 T03590217  RH  047%=      5-min Rain = 0
KHA1 212220Z 17015G21KT 36/22 A2973 RMK A01 T03610215  RH  046%=      5-min Rain = 0
KHA1 212225Z 16015G22KT 36/22 A2972 RMK A01 T03590215  RH  046%=      5-min Rain = 0
KHA1 212230Z 16014G21KT 36/22 A2972 RMK A01 T03570216  RH  047%=      5-min Rain = 0
KHA1 212235Z 16012G20KT 36/22 A2972 RMK A01 T03580217  RH  047%=      5-min Rain = 0
KHA1 212240Z 17015G24KT 36/22 A2972 RMK A01 T03590215  RH  046%=      5-min Rain = 0
KHA1 212245Z 17014G22KT 36/21 A2972 RMK A01 T03580213  RH  046%=      5-min Rain = 0
KHA1 212250Z 16016G25KT 36/21 A2972 RMK A01 T03560211  RH  046%=      5-min Rain = 0
KHA1 212255Z 17014G20KT 36/21 A2972 RMK A01 T03550211  RH  046%=      5-min Rain = 0
KHA1 212300Z 16014G20KT 36/21 A2972 RMK A01 T03570212  RH  046%=      5-min Rain = 0
KHA1 212305Z 16013G18KT 36/21 A2972 RMK A01 T03550210  RH  046%=      5-min Rain = 0
KHA1 212310Z 16014G22KT 35/21 A2972 RMK A01 T03540211  RH  046%=      5-min Rain = 0
KHA1 212315Z 17013G18KT 36/21 A2972 RMK A01 T03550214  RH  047%=      5-min Rain = 0
KHA1 212320Z 17015G21KT 36/21 A2972 RMK A01 T03550211  RH  046%=      5-min Rain = 0
KHA1 212325Z 17013G21KT 36/21 A2972 RMK A01 T03550211  RH  046%=      5-min Rain = 0
KHA1 212330Z 16015G22KT 35/21 A2972 RMK A01 T03540211  RH  046%=      5-min Rain = 0
KHA1 212335Z 16013G19KT 35/21 A2972 RMK A01 T03520211  RH  047%=      5-min Rain = 0
KHA1 212340Z 16013G18KT 35/21 A2972 RMK A01 T03510212  RH  047%=      5-min Rain = 0
KHA1 212345Z 16014G21KT 35/21 A2972 RMK A01 T03490211  RH  048%=      5-min Rain = 0
KHA1 212350Z 16014G22KT 35/21 A2972 RMK A01 T03460208  RH  047%=      5-min Rain = 0
KHA1 212355Z 16013G19KT 34/21 A2972 RMK A01 T03440207  RH  048%=      5-min Rain = 0
KHA1 220000Z 16014G22KT 34/21 A2972 RMK A01 T03430207  RH  048%=      5-min Rain = 0
KHA1 220005Z 16013G19KT 34/21 A2972 RMK A01 T03410205  RH  048%=      5-min Rain = 0
KHA1 220010Z 16013G18KT 34/20 A2973 RMK A01 T03390204  RH  048%=      5-min Rain = 0
KHA1 220015Z 16013G19KT 34/20 A2973 RMK A01 T03380204  RH  048%=      5-min Rain = 0
KHA1 220020Z 16012G17KT 34/21 A2973 RMK A01 T03370205  RH  049%=      5-min Rain = 0
KHA1 220025Z 16012KT 34/20 A2973 RMK A01 T03370204  RH  049%=      5-min Rain = 0
KHA1 220030Z 16010G18KT 34/21 A2973 RMK A01 T03380206  RH  049%=      5-min Rain = 0
KHA1 220035Z 15009G14KT 34/21 A2973 RMK A01 T03380209  RH  050%=      5-min Rain = 0
KHA1 220040Z 16010G15KT 34/21 A2973 RMK A01 T03380213  RH  051%=      5-min Rain = 0
KHA1 220045Z 15011G18KT 34/22 A2972 RMK A01 T03350215  RH  052%=      5-min Rain = 0
KHA1 220050Z 15011G20KT 33/22 A2972 RMK A01 T03330215  RH  053%=      5-min Rain = 0
KHA1 220055Z 15010G19KT 33/22 A2972 RMK A01 T03300216  RH  054%=      5-min Rain = 0
KHA1 220100Z 15011G18KT 33/22 A2972 RMK A01 T03280215  RH  055%=      5-min Rain = 0
KHA1 220105Z 15011G18KT 33/22 A2972 RMK A01 T03270216  RH  055%=      5-min Rain = 0
KHA1 220110Z 15013G23KT 33/21 A2971 RMK A01 T03260214  RH  055%=      5-min Rain = 0
KHA1 220115Z 15013G18KT 32/21 A2971 RMK A01 T03240213  RH  055%=      5-min Rain = 0
KHA1 220120Z 15013G20KT 32/21 A297 RMK A01 T03230212  RH  055%=      5-min Rain = 0
KHA1 220125Z 15010G20KT 32/21 A2971 RMK A01 T03210211  RH  056%=      5-min Rain = 0
KHA1 220130Z 14012KT 32/21 A2971 RMK A01 T03200210  RH  056%=      5-min Rain = 0
KHA1 220135Z 15011G20KT 32/21 A2971 RMK A01 T03190210  RH  056%=      5-min Rain = 0
KHA1 220140Z 15011G17KT 32/21 A2972 RMK A01 T03190210  RH  056%=      5-min Rain = 0
KHA1 220145Z 17011G16KT 32/21 A2973 RMK A01 T03180210  RH  056%=      5-min Rain = 0
KHA1 220150Z 16012G17KT 32/21 A2974 RMK A01 T03160211  RH  057%=      5-min Rain = 0
KHA1 220155Z 16011G17KT 32/21 A2974 RMK A01 T03150212  RH  058%=      5-min Rain = 0
KHA1 220200Z 16012G19KT 31/21 A2974 RMK A01 T03140213  RH  059%=      5-min Rain = 0
KHA1 220205Z 15015G21KT 31/21 A2973 RMK A01 T03130214  RH  059%=      5-min Rain = 0
KHA1 220210Z 16014G21KT 31/22 A2973 RMK A01 T03130215  RH  059%=      5-min Rain = 0
KHA1 220215Z 16013G20KT 31/22 A2974 RMK A01 T03120215  RH  060%=      5-min Rain = 0
KHA1 220220Z 16011G16KT 31/22 A2975 RMK A01 T03110216  RH  061%=      5-min Rain = 0
KHA1 220225Z 16013G19KT 31/22 A2975 RMK A01 T03100216  RH  061%=      5-min Rain = 0
KHA1 220230Z 16012G17KT 31/22 A2976 RMK A01 T03100216  RH  061%=      5-min Rain = 0
KHA1 220235Z 16013G20KT 31/22 A2976 RMK A01 T03090216  RH  061%=      5-min Rain = 0
KHA1 220240Z 16013G19KT 31/22 A2976 RMK A01 T03090216  RH  061%=      5-min Rain = 0
KHA1 220245Z 16013G20KT 31/22 A2976 RMK A01 T03090216  RH  061%=      5-min Rain = 0
KHA1 220250Z 16014G21KT 31/22 A2977 RMK A01 T03090215  RH  061%=      5-min Rain = 0
KHA1 220255Z 16011G17KT 31/22 A2977 RMK A01 T03080215  RH  062%=      5-min Rain = 0
KHA1 220300Z 16013G21KT 31/22 A2977 RMK A01 T03080215  RH  061%=      5-min Rain = 0
KHA1 220305Z 16012KT 31/21 A2977 RMK A01 T03070214  RH  061%=      5-min Rain = 0
KHA1 220310Z 16011KT 31/21 A2977 RMK A01 T03070214  RH  061%=      5-min Rain = 0
KHA1 220315Z 17012G18KT 31/21 A2978 RMK A01 T03070213  RH  061%=      5-min Rain = 0
KHA1 220320Z 17011G17KT 31/21 A2979 RMK A01 T03070213  RH  061%=      5-min Rain = 0
KHA1 220325Z 18011G16KT 31/21 A298 RMK A01 T03070213  RH  061%=      5-min Rain = 0
KHA1 220330Z 18012G19KT 31/21 A2981 RMK A01 T03070213  RH  061%=      5-min Rain = 0
KHA1 220335Z 18010G17KT 31/21 A2982 RMK A01 T03070212  RH  061%=      5-min Rain = 0
KHA1 220340Z 18010G17KT 31/21 A2982 RMK A01 T03060212  RH  061%=      5-min Rain = 0
KHA1 220345Z 18010G15KT 31/21 A2982 RMK A01 T03060212  RH  061%=      5-min Rain = 0
KHA1 220350Z 18011G16KT 31/21 A2982 RMK A01 T03060212  RH  061%=      5-min Rain = 0
KHA1 220355Z 18009G15KT 31/21 A2982 RMK A01 T03050212  RH  061%=      5-min Rain = 0
KHA1 220400Z 17009KT 30/21 A2982 RMK A01 T03040213  RH  062%=      5-min Rain = 0
KHA1 220405Z 17008KT 30/21 A2982 RMK A01 T03030213  RH  062%=      5-min Rain = 0
KHA1 220410Z 17008G14KT 30/21 A2982 RMK A01 T03020213  RH  062%=      5-min Rain = 0
KHA1 220415Z 17008KT 30/21 A2982 RMK A01 T03020213  RH  062%=      5-min Rain = 0
KHA1 220420Z 17008KT 30/21 A2982 RMK A01 T03020213  RH  063%=      5-min Rain = 0
KHA1 220425Z 18008KT 30/21 A2982 RMK A01 T03010213  RH  063%=      5-min Rain = 0
KHA1 220430Z 20008KT 30/21 A2982 RMK A01 T03000213  RH  063%=      5-min Rain = 0
KHA1 220435Z 22008KT 30/21 A2982 RMK A01 T02990213  RH  064%=      5-min Rain = 0
KHA1 220440Z 21007KT 30/21 A2983 RMK A01 T02980214  RH  064%=      5-min Rain = 0
KHA1 220445Z 20007KT 30/21 A2983 RMK A01 T02980214  RH  065%=      5-min Rain = 0
KHA1 220450Z 20007KT 30/21 A2983 RMK A01 T02970214  RH  065%=      5-min Rain = 0
KHA1 220455Z 19006KT 30/21 A2983 RMK A01 T02970214  RH  065%=      5-min Rain = 0

Page generated in 0.0128 seconds.